sensor_id;sensor_type;location;lat;lon;timestamp;P1;durP1;ratioP1;P2;durP2;ratioP2
44116;SDS011;29781;49.480;8.512;2023-04-01T00:00:46;3.08;;;0.70;;
44116;SDS011;29781;49.480;8.512;2023-04-01T00:03:11;4.90;;;0.98;;
44116;SDS011;29781;49.480;8.512;2023-04-01T00:05:37;3.42;;;0.65;;
44116;SDS011;29781;49.480;8.512;2023-04-01T00:08:02;1.50;;;0.60;;
44116;SDS011;29781;49.480;8.512;2023-04-01T00:10:28;4.18;;;0.70;;
44116;SDS011;29781;49.480;8.512;2023-04-01T00:12:54;3.30;;;0.80;;
44116;SDS011;29781;49.480;8.512;2023-04-01T00:15:20;3.47;;;1.00;;
44116;SDS011;29781;49.480;8.512;2023-04-01T00:17:45;4.38;;;0.70;;
44116;SDS011;29781;49.480;8.512;2023-04-01T00:20:11;4.15;;;0.90;;
44116;SDS011;29781;49.480;8.512;2023-04-01T00:22:37;6.28;;;0.93;;
44116;SDS011;29781;49.480;8.512;2023-04-01T00:25:03;2.30;;;0.65;;
44116;SDS011;29781;49.480;8.512;2023-04-01T00:27:29;2.88;;;0.80;;
44116;SDS011;29781;49.480;8.512;2023-04-01T00:29:55;2.88;;;0.88;;
44116;SDS011;29781;49.480;8.512;2023-04-01T00:32:20;3.13;;;1.33;;
44116;SDS011;29781;49.480;8.512;2023-04-01T00:34:49;1.25;;;0.68;;
44116;SDS011;29781;49.480;8.512;2023-04-01T00:37:16;3.17;;;0.80;;
44116;SDS011;29781;49.480;8.512;2023-04-01T00:39:42;1.58;;;0.70;;
44116;SDS011;29781;49.480;8.512;2023-04-01T00:42:08;5.18;;;0.60;;
44116;SDS011;29781;49.480;8.512;2023-04-01T00:44:36;1.60;;;0.70;;
44116;SDS011;29781;49.480;8.512;2023-04-01T00:47:03;3.00;;;1.13;;
44116;SDS011;29781;49.480;8.512;2023-04-01T00:49:30;6.38;;;0.90;;
44116;SDS011;29781;49.480;8.512;2023-04-01T00:52:00;4.18;;;0.88;;
44116;SDS011;29781;49.480;8.512;2023-04-01T00:54:28;2.33;;;0.77;;
44116;SDS011;29781;49.480;8.512;2023-04-01T00:56:56;2.75;;;0.80;;
44116;SDS011;29781;49.480;8.512;2023-04-01T00:59:29;4.93;;;0.85;;
44116;SDS011;29781;49.480;8.512;2023-04-01T01:02:00;2.78;;;0.85;;
44116;SDS011;29781;49.480;8.512;2023-04-01T01:04:31;2.38;;;0.68;;
44116;SDS011;29781;49.480;8.512;2023-04-01T01:10:10;3.00;;;0.90;;
44116;SDS011;29781;49.480;8.512;2023-04-01T01:12:45;3.33;;;0.90;;
44116;SDS011;29781;49.480;8.512;2023-04-01T01:15:18;3.30;;;0.82;;
44116;SDS011;29781;49.480;8.512;2023-04-01T01:23:18;2.15;;;0.75;;
44116;SDS011;29781;49.480;8.512;2023-04-01T01:29:05;3.45;;;0.70;;
44116;SDS011;29781;49.480;8.512;2023-04-01T01:32:06;2.63;;;0.70;;
44116;SDS011;29781;49.480;8.512;2023-04-01T01:37:39;4.95;;;0.85;;
44116;SDS011;29781;49.480;8.512;2023-04-01T01:40:07;3.03;;;0.77;;
44116;SDS011;29781;49.480;8.512;2023-04-01T01:42:35;5.00;;;0.93;;
44116;SDS011;29781;49.480;8.512;2023-04-01T01:45:04;4.95;;;0.95;;
44116;SDS011;29781;49.480;8.512;2023-04-01T01:47:32;1.58;;;0.70;;
44116;SDS011;29781;49.480;8.512;2023-04-01T01:50:00;4.03;;;0.80;;
44116;SDS011;29781;49.480;8.512;2023-04-01T01:52:29;2.10;;;0.60;;
44116;SDS011;29781;49.480;8.512;2023-04-01T01:54:55;4.70;;;0.90;;
44116;SDS011;29781;49.480;8.512;2023-04-01T01:57:32;6.70;;;1.00;;
44116;SDS011;29781;49.480;8.512;2023-04-01T02:00:02;3.95;;;0.77;;
44116;SDS011;29781;49.480;8.512;2023-04-01T02:02:38;4.28;;;0.90;;
44116;SDS011;29781;49.480;8.512;2023-04-01T02:05:05;4.60;;;1.00;;
44116;SDS011;29781;49.480;8.512;2023-04-01T02:07:33;5.72;;;1.17;;
44116;SDS011;29781;49.480;8.512;2023-04-01T02:10:01;2.97;;;0.82;;
44116;SDS011;29781;49.480;8.512;2023-04-01T02:12:27;6.25;;;1.02;;
44116;SDS011;29781;49.480;8.512;2023-04-01T02:14:59;4.88;;;1.10;;
44116;SDS011;29781;49.480;8.512;2023-04-01T02:17:38;5.90;;;1.02;;
44116;SDS011;29781;49.480;8.512;2023-04-01T02:20:13;4.57;;;1.05;;
44116;SDS011;29781;49.480;8.512;2023-04-01T02:22:43;2.63;;;0.70;;
44116;SDS011;29781;49.480;8.512;2023-04-01T02:25:14;3.17;;;0.57;;
44116;SDS011;29781;49.480;8.512;2023-04-01T02:27:43;3.50;;;0.90;;
44116;SDS011;29781;49.480;8.512;2023-04-01T02:30:11;4.68;;;0.98;;
44116;SDS011;29781;49.480;8.512;2023-04-01T02:32:38;3.03;;;1.00;;
44116;SDS011;29781;49.480;8.512;2023-04-01T02:35:05;2.63;;;1.00;;
44116;SDS011;29781;49.480;8.512;2023-04-01T02:37:35;2.50;;;0.82;;
44116;SDS011;29781;49.480;8.512;2023-04-01T02:40:02;2.92;;;0.80;;
44116;SDS011;29781;49.480;8.512;2023-04-01T02:42:29;5.28;;;1.00;;
44116;SDS011;29781;49.480;8.512;2023-04-01T02:44:55;3.92;;;0.90;;
44116;SDS011;29781;49.480;8.512;2023-04-01T02:47:20;4.38;;;0.90;;
44116;SDS011;29781;49.480;8.512;2023-04-01T02:49:46;1.23;;;0.63;;
44116;SDS011;29781;49.480;8.512;2023-04-01T02:52:11;4.57;;;1.00;;
44116;SDS011;29781;49.480;8.512;2023-04-01T02:54:37;2.10;;;0.63;;
44116;SDS011;29781;49.480;8.512;2023-04-01T02:57:03;6.32;;;0.88;;
44116;SDS011;29781;49.480;8.512;2023-04-01T02:59:28;3.13;;;0.85;;
44116;SDS011;29781;49.480;8.512;2023-04-01T03:01:54;5.38;;;0.70;;
44116;SDS011;29781;49.480;8.512;2023-04-01T03:04:20;2.00;;;0.60;;
44116;SDS011;29781;49.480;8.512;2023-04-01T03:06:45;3.42;;;0.73;;
44116;SDS011;29781;49.480;8.512;2023-04-01T03:09:11;3.58;;;0.65;;
44116;SDS011;29781;49.480;8.512;2023-04-01T03:11:36;2.97;;;0.70;;
44116;SDS011;29781;49.480;8.512;2023-04-01T03:14:01;1.58;;;0.40;;
44116;SDS011;29781;49.480;8.512;2023-04-01T03:16:27;3.55;;;0.90;;
44116;SDS011;29781;49.480;8.512;2023-04-01T03:18:52;5.15;;;1.15;;
44116;SDS011;29781;49.480;8.512;2023-04-01T03:21:21;4.63;;;1.05;;
44116;SDS011;29781;49.480;8.512;2023-04-01T03:23:47;2.83;;;0.90;;
44116;SDS011;29781;49.480;8.512;2023-04-01T03:26:13;4.32;;;0.57;;
44116;SDS011;29781;49.480;8.512;2023-04-01T03:28:39;3.28;;;0.90;;
44116;SDS011;29781;49.480;8.512;2023-04-01T03:31:04;4.68;;;0.88;;
44116;SDS011;29781;49.480;8.512;2023-04-01T03:33:31;4.18;;;0.93;;
44116;SDS011;29781;49.480;8.512;2023-04-01T03:35:56;2.08;;;0.63;;
44116;SDS011;29781;49.480;8.512;2023-04-01T03:38:22;2.35;;;0.57;;
44116;SDS011;29781;49.480;8.512;2023-04-01T03:40:48;1.42;;;0.70;;
44116;SDS011;29781;49.480;8.512;2023-04-01T03:43:13;2.17;;;0.60;;
44116;SDS011;29781;49.480;8.512;2023-04-01T03:45:45;2.22;;;0.70;;
44116;SDS011;29781;49.480;8.512;2023-04-01T03:48:23;3.50;;;0.90;;
44116;SDS011;29781;49.480;8.512;2023-04-01T03:50:50;2.60;;;0.75;;
44116;SDS011;29781;49.480;8.512;2023-04-01T03:53:15;2.40;;;0.60;;
44116;SDS011;29781;49.480;8.512;2023-04-01T03:55:41;3.72;;;1.20;;
44116;SDS011;29781;49.480;8.512;2023-04-01T03:58:07;2.53;;;0.90;;
44116;SDS011;29781;49.480;8.512;2023-04-01T04:00:33;1.33;;;0.68;;
44116;SDS011;29781;49.480;8.512;2023-04-01T04:02:59;4.35;;;0.65;;
44116;SDS011;29781;49.480;8.512;2023-04-01T04:05:24;1.50;;;0.55;;
44116;SDS011;29781;49.480;8.512;2023-04-01T04:07:51;1.48;;;0.68;;
44116;SDS011;29781;49.480;8.512;2023-04-01T04:10:17;5.57;;;0.73;;
44116;SDS011;29781;49.480;8.512;2023-04-01T04:12:43;2.92;;;0.60;;
44116;SDS011;29781;49.480;8.512;2023-04-01T04:15:09;2.90;;;1.02;;
44116;SDS011;29781;49.480;8.512;2023-04-01T04:17:35;4.85;;;0.80;;
44116;SDS011;29781;49.480;8.512;2023-04-01T04:20:01;2.42;;;0.95;;
44116;SDS011;29781;49.480;8.512;2023-04-01T04:22:27;3.90;;;0.70;;
44116;SDS011;29781;49.480;8.512;2023-04-01T04:24:52;3.85;;;0.90;;
44116;SDS011;29781;49.480;8.512;2023-04-01T04:27:18;2.58;;;0.73;;
44116;SDS011;29781;49.480;8.512;2023-04-01T04:29:44;1.58;;;0.70;;
44116;SDS011;29781;49.480;8.512;2023-04-01T04:32:09;8.05;;;1.20;;
44116;SDS011;29781;49.480;8.512;2023-04-01T04:34:35;1.88;;;0.70;;
44116;SDS011;29781;49.480;8.512;2023-04-01T04:37:00;2.38;;;0.80;;
44116;SDS011;29781;49.480;8.512;2023-04-01T04:39:26;3.30;;;0.80;;
44116;SDS011;29781;49.480;8.512;2023-04-01T04:41:51;4.60;;;1.10;;
44116;SDS011;29781;49.480;8.512;2023-04-01T04:44:17;2.50;;;0.80;;
44116;SDS011;29781;49.480;8.512;2023-04-01T04:46:42;3.95;;;0.80;;
44116;SDS011;29781;49.480;8.512;2023-04-01T04:49:08;3.38;;;0.60;;
44116;SDS011;29781;49.480;8.512;2023-04-01T04:51:34;2.70;;;0.90;;
44116;SDS011;29781;49.480;8.512;2023-04-01T04:54:01;3.72;;;0.70;;
44116;SDS011;29781;49.480;8.512;2023-04-01T04:56:27;2.60;;;0.65;;
44116;SDS011;29781;49.480;8.512;2023-04-01T04:58:53;1.92;;;0.93;;
44116;SDS011;29781;49.480;8.512;2023-04-01T05:01:19;2.88;;;0.90;;
44116;SDS011;29781;49.480;8.512;2023-04-01T05:03:45;3.80;;;1.02;;
44116;SDS011;29781;49.480;8.512;2023-04-01T05:06:12;3.92;;;0.93;;
44116;SDS011;29781;49.480;8.512;2023-04-01T05:08:38;5.85;;;0.90;;
44116;SDS011;29781;49.480;8.512;2023-04-01T05:11:06;3.25;;;0.82;;
44116;SDS011;29781;49.480;8.512;2023-04-01T05:13:37;5.47;;;0.80;;
44116;SDS011;29781;49.480;8.512;2023-04-01T05:16:02;2.45;;;0.82;;
44116;SDS011;29781;49.480;8.512;2023-04-01T05:18:28;3.00;;;0.90;;
44116;SDS011;29781;49.480;8.512;2023-04-01T05:20:54;3.50;;;0.80;;
44116;SDS011;29781;49.480;8.512;2023-04-01T05:23:20;4.80;;;1.10;;
44116;SDS011;29781;49.480;8.512;2023-04-01T05:25:47;2.67;;;0.77;;
44116;SDS011;29781;49.480;8.512;2023-04-01T05:28:13;2.00;;;0.68;;
44116;SDS011;29781;49.480;8.512;2023-04-01T05:30:40;3.55;;;0.93;;
44116;SDS011;29781;49.480;8.512;2023-04-01T05:33:06;2.60;;;0.80;;
44116;SDS011;29781;49.480;8.512;2023-04-01T05:35:32;4.45;;;1.05;;
44116;SDS011;29781;49.480;8.512;2023-04-01T05:37:58;2.90;;;0.70;;
44116;SDS011;29781;49.480;8.512;2023-04-01T05:40:23;4.03;;;0.98;;
44116;SDS011;29781;49.480;8.512;2023-04-01T05:42:49;7.40;;;1.35;;
44116;SDS011;29781;49.480;8.512;2023-04-01T05:45:14;4.80;;;1.00;;
44116;SDS011;29781;49.480;8.512;2023-04-01T05:47:40;3.83;;;1.00;;
44116;SDS011;29781;49.480;8.512;2023-04-01T05:50:07;2.65;;;0.75;;
44116;SDS011;29781;49.480;8.512;2023-04-01T05:52:36;4.75;;;0.93;;
44116;SDS011;29781;49.480;8.512;2023-04-01T05:55:02;3.28;;;0.93;;
44116;SDS011;29781;49.480;8.512;2023-04-01T05:57:28;3.58;;;0.70;;
44116;SDS011;29781;49.480;8.512;2023-04-01T05:59:54;3.40;;;0.88;;
44116;SDS011;29781;49.480;8.512;2023-04-01T06:02:19;5.22;;;1.13;;
44116;SDS011;29781;49.480;8.512;2023-04-01T06:04:45;5.45;;;1.48;;
44116;SDS011;29781;49.480;8.512;2023-04-01T06:07:12;4.43;;;1.17;;
44116;SDS011;29781;49.480;8.512;2023-04-01T06:09:39;5.10;;;1.00;;
44116;SDS011;29781;49.480;8.512;2023-04-01T06:20:11;3.28;;;1.00;;
44116;SDS011;29781;49.480;8.512;2023-04-01T06:33:35;4.70;;;0.85;;
44116;SDS011;29781;49.480;8.512;2023-04-01T06:41:36;2.30;;;1.00;;
44116;SDS011;29781;49.480;8.512;2023-04-01T06:55:20;2.47;;;0.98;;
44116;SDS011;29781;49.480;8.512;2023-04-01T06:57:52;1.63;;;0.68;;
44116;SDS011;29781;49.480;8.512;2023-04-01T07:00:30;2.17;;;0.50;;
44116;SDS011;29781;49.480;8.512;2023-04-01T07:05:56;2.30;;;0.60;;
44116;SDS011;29781;49.480;8.512;2023-04-01T07:08:27;2.47;;;0.73;;
44116;SDS011;29781;49.480;8.512;2023-04-01T07:10:56;3.10;;;0.80;;
44116;SDS011;29781;49.480;8.512;2023-04-01T07:13:28;1.67;;;0.55;;
44116;SDS011;29781;49.480;8.512;2023-04-01T07:18:44;3.80;;;0.77;;
44116;SDS011;29781;49.480;8.512;2023-04-01T07:21:29;1.42;;;0.40;;
44116;SDS011;29781;49.480;8.512;2023-04-01T07:24:03;1.88;;;0.50;;
44116;SDS011;29781;49.480;8.512;2023-04-01T07:26:31;2.78;;;0.77;;
44116;SDS011;29781;49.480;8.512;2023-04-01T07:28:57;5.22;;;0.75;;
44116;SDS011;29781;49.480;8.512;2023-04-01T07:34:24;2.97;;;0.68;;
44116;SDS011;29781;49.480;8.512;2023-04-01T07:42:25;2.58;;;0.47;;
44116;SDS011;29781;49.480;8.512;2023-04-01T07:50:21;2.30;;;0.88;;
44116;SDS011;29781;49.480;8.512;2023-04-01T07:55:50;1.10;;;0.50;;
44116;SDS011;29781;49.480;8.512;2023-04-01T08:10:44;2.65;;;0.93;;
44116;SDS011;29781;49.480;8.512;2023-04-01T08:13:38;1.20;;;0.40;;
44116;SDS011;29781;49.480;8.512;2023-04-01T08:16:38;0.77;;;0.50;;
44116;SDS011;29781;49.480;8.512;2023-04-01T08:22:20;3.00;;;0.70;;
44116;SDS011;29781;49.480;8.512;2023-04-01T08:24:52;2.88;;;0.60;;
44116;SDS011;29781;49.480;8.512;2023-04-01T08:30:04;1.55;;;0.60;;
44116;SDS011;29781;49.480;8.512;2023-04-01T08:32:44;1.02;;;0.50;;
44116;SDS011;29781;49.480;8.512;2023-04-01T08:35:37;3.45;;;0.80;;
44116;SDS011;29781;49.480;8.512;2023-04-01T08:46:52;2.10;;;0.60;;
44116;SDS011;29781;49.480;8.512;2023-04-01T08:49:33;2.22;;;0.73;;
44116;SDS011;29781;49.480;8.512;2023-04-01T09:01:04;2.90;;;0.77;;
44116;SDS011;29781;49.480;8.512;2023-04-01T09:04:13;0.80;;;0.50;;
44116;SDS011;29781;49.480;8.512;2023-04-01T09:09:55;0.98;;;0.50;;
44116;SDS011;29781;49.480;8.512;2023-04-01T09:15:53;2.17;;;0.63;;
44116;SDS011;29781;49.480;8.512;2023-04-01T09:32:40;1.02;;;0.47;;
44116;SDS011;29781;49.480;8.512;2023-04-01T09:35:24;3.90;;;0.60;;
44116;SDS011;29781;49.480;8.512;2023-04-01T09:38:19;1.30;;;0.50;;
44116;SDS011;29781;49.480;8.512;2023-04-01T09:46:56;1.33;;;0.50;;
44116;SDS011;29781;49.480;8.512;2023-04-01T09:54:46;2.25;;;0.50;;
44116;SDS011;29781;49.480;8.512;2023-04-01T10:03:19;2.25;;;0.70;;
44116;SDS011;29781;49.480;8.512;2023-04-01T10:12:02;1.35;;;0.47;;
44116;SDS011;29781;49.480;8.512;2023-04-01T10:14:55;1.30;;;0.50;;
44116;SDS011;29781;49.480;8.512;2023-04-01T10:20:44;1.27;;;0.50;;
44116;SDS011;29781;49.480;8.512;2023-04-01T10:23:31;0.75;;;0.75;;
44116;SDS011;29781;49.480;8.512;2023-04-01T10:26:28;1.00;;;0.40;;
44116;SDS011;29781;49.480;8.512;2023-04-01T10:29:06;1.95;;;0.60;;
44116;SDS011;29781;49.480;8.512;2023-04-01T11:22:57;0.63;;;0.63;;
44116;SDS011;29781;49.480;8.512;2023-04-01T11:31:17;0.80;;;0.40;;
44116;SDS011;29781;49.480;8.512;2023-04-01T11:33:51;0.93;;;0.77;;
44116;SDS011;29781;49.480;8.512;2023-04-01T11:42:17;0.88;;;0.60;;
44116;SDS011;29781;49.480;8.512;2023-04-01T11:44:58;1.65;;;0.82;;
44116;SDS011;29781;49.480;8.512;2023-04-01T11:48:00;0.40;;;0.40;;
44116;SDS011;29781;49.480;8.512;2023-04-01T11:50:44;0.50;;;0.50;;
44116;SDS011;29781;49.480;8.512;2023-04-01T11:53:27;0.32;;;0.32;;
44116;SDS011;29781;49.480;8.512;2023-04-01T11:59:25;0.40;;;0.20;;
44116;SDS011;29781;49.480;8.512;2023-04-01T12:02:23;0.35;;;0.30;;
44116;SDS011;29781;49.480;8.512;2023-04-01T12:04:54;0.35;;;0.35;;
44116;SDS011;29781;49.480;8.512;2023-04-01T12:10:38;0.50;;;0.50;;
44116;SDS011;29781;49.480;8.512;2023-04-01T12:20:54;0.45;;;0.30;;
44116;SDS011;29781;49.480;8.512;2023-04-01T12:26:38;0.30;;;0.30;;
44116;SDS011;29781;49.480;8.512;2023-04-01T12:29:38;0.40;;;0.30;;
44116;SDS011;29781;49.480;8.512;2023-04-01T12:32:53;0.38;;;0.38;;
44116;SDS011;29781;49.480;8.512;2023-04-01T12:41:39;0.47;;;0.30;;
44116;SDS011;29781;49.480;8.512;2023-04-01T12:47:19;0.50;;;0.30;;
44116;SDS011;29781;49.480;8.512;2023-04-01T12:55:48;0.40;;;0.40;;
44116;SDS011;29781;49.480;8.512;2023-04-01T12:58:51;0.35;;;0.25;;
44116;SDS011;29781;49.480;8.512;2023-04-01T13:07:21;0.95;;;0.40;;
44116;SDS011;29781;49.480;8.512;2023-04-01T13:15:35;0.30;;;0.30;;
44116;SDS011;29781;49.480;8.512;2023-04-01T13:18:16;0.35;;;0.35;;
44116;SDS011;29781;49.480;8.512;2023-04-01T13:26:34;0.38;;;0.30;;
44116;SDS011;29781;49.480;8.512;2023-04-01T13:29:20;1.13;;;0.50;;
44116;SDS011;29781;49.480;8.512;2023-04-01T13:34:54;0.40;;;0.40;;
44116;SDS011;29781;49.480;8.512;2023-04-01T13:45:38;0.45;;;0.40;;
44116;SDS011;29781;49.480;8.512;2023-04-01T13:48:36;0.40;;;0.40;;
44116;SDS011;29781;49.480;8.512;2023-04-01T13:51:33;1.52;;;0.40;;
44116;SDS011;29781;49.480;8.512;2023-04-01T14:13:43;0.90;;;0.60;;
44116;SDS011;29781;49.480;8.512;2023-04-01T14:18:59;0.50;;;0.50;;
44116;SDS011;29781;49.480;8.512;2023-04-01T14:27:38;0.65;;;0.40;;
44116;SDS011;29781;49.480;8.512;2023-04-01T14:30:14;0.63;;;0.50;;
44116;SDS011;29781;49.480;8.512;2023-04-01T14:33:15;0.57;;;0.40;;
44116;SDS011;29781;49.480;8.512;2023-04-01T14:41:34;0.52;;;0.50;;
44116;SDS011;29781;49.480;8.512;2023-04-01T14:49:49;0.52;;;0.40;;
44116;SDS011;29781;49.480;8.512;2023-04-01T14:54:46;4.28;;;0.60;;
44116;SDS011;29781;49.480;8.512;2023-04-01T15:02:37;1.08;;;0.50;;
44116;SDS011;29781;49.480;8.512;2023-04-01T15:13:12;2.60;;;1.58;;
44116;SDS011;29781;49.480;8.512;2023-04-01T15:18:34;0.90;;;0.47;;
44116;SDS011;29781;49.480;8.512;2023-04-01T15:21:12;0.68;;;0.40;;
44116;SDS011;29781;49.480;8.512;2023-04-01T15:24:06;0.57;;;0.50;;
44116;SDS011;29781;49.480;8.512;2023-04-01T15:26:39;0.60;;;0.47;;
44116;SDS011;29781;49.480;8.512;2023-04-01T15:29:27;1.00;;;0.50;;
44116;SDS011;29781;49.480;8.512;2023-04-01T15:32:13;0.63;;;0.60;;
44116;SDS011;29781;49.480;8.512;2023-04-01T15:35:03;1.50;;;0.50;;
44116;SDS011;29781;49.480;8.512;2023-04-01T15:41:03;1.38;;;0.40;;
44116;SDS011;29781;49.480;8.512;2023-04-01T15:43:48;0.40;;;0.40;;
44116;SDS011;29781;49.480;8.512;2023-04-01T15:57:55;0.88;;;0.50;;
44116;SDS011;29781;49.480;8.512;2023-04-01T16:00:53;0.73;;;0.73;;
44116;SDS011;29781;49.480;8.512;2023-04-01T16:03:39;0.50;;;0.50;;
44116;SDS011;29781;49.480;8.512;2023-04-01T16:14:28;2.33;;;0.60;;
44116;SDS011;29781;49.480;8.512;2023-04-01T16:22:59;1.73;;;0.45;;
44116;SDS011;29781;49.480;8.512;2023-04-01T16:28:02;1.10;;;0.50;;
44116;SDS011;29781;49.480;8.512;2023-04-01T16:30:40;0.32;;;0.32;;
44116;SDS011;29781;49.480;8.512;2023-04-01T16:33:24;1.05;;;0.50;;
44116;SDS011;29781;49.480;8.512;2023-04-01T16:43:38;0.93;;;0.50;;
44116;SDS011;29781;49.480;8.512;2023-04-01T16:51:24;9.07;;;3.05;;
44116;SDS011;29781;49.480;8.512;2023-04-01T16:54:17;2.17;;;1.88;;
44116;SDS011;29781;49.480;8.512;2023-04-01T16:59:34;0.77;;;0.57;;
44116;SDS011;29781;49.480;8.512;2023-04-01T17:04:40;2.28;;;0.60;;
44116;SDS011;29781;49.480;8.512;2023-04-01T17:13:03;1.17;;;0.60;;
44116;SDS011;29781;49.480;8.512;2023-04-01T17:26:55;1.70;;;0.63;;
44116;SDS011;29781;49.480;8.512;2023-04-01T17:29:57;0.60;;;0.57;;
44116;SDS011;29781;49.480;8.512;2023-04-01T17:35:49;1.52;;;0.60;;
44116;SDS011;29781;49.480;8.512;2023-04-01T17:38:48;0.57;;;0.40;;
44116;SDS011;29781;49.480;8.512;2023-04-01T17:43:57;1.83;;;0.50;;
44116;SDS011;29781;49.480;8.512;2023-04-01T17:49:32;1.48;;;0.70;;
44116;SDS011;29781;49.480;8.512;2023-04-01T17:52:16;0.98;;;0.68;;
44116;SDS011;29781;49.480;8.512;2023-04-01T18:00:33;0.57;;;0.40;;
44116;SDS011;29781;49.480;8.512;2023-04-01T18:08:52;0.50;;;0.50;;
44116;SDS011;29781;49.480;8.512;2023-04-01T18:11:34;0.57;;;0.50;;
44116;SDS011;29781;49.480;8.512;2023-04-01T18:14:22;1.25;;;0.50;;
44116;SDS011;29781;49.480;8.512;2023-04-01T18:19:45;0.75;;;0.50;;
44116;SDS011;29781;49.480;8.512;2023-04-01T18:25:27;0.98;;;0.57;;
44116;SDS011;29781;49.480;8.512;2023-04-01T18:30:40;0.45;;;0.45;;
44116;SDS011;29781;49.480;8.512;2023-04-01T18:33:18;1.50;;;0.60;;
44116;SDS011;29781;49.480;8.512;2023-04-01T18:36:13;1.17;;;0.50;;
44116;SDS011;29781;49.480;8.512;2023-04-01T18:38:50;1.33;;;0.50;;
44116;SDS011;29781;49.480;8.512;2023-04-01T18:41:32;1.02;;;0.60;;
44116;SDS011;29781;49.480;8.512;2023-04-01T18:47:02;0.60;;;0.60;;
44116;SDS011;29781;49.480;8.512;2023-04-01T18:49:45;1.00;;;0.88;;
44116;SDS011;29781;49.480;8.512;2023-04-01T18:52:33;1.05;;;0.63;;
44116;SDS011;29781;49.480;8.512;2023-04-01T19:00:19;2.65;;;0.70;;
44116;SDS011;29781;49.480;8.512;2023-04-01T19:02:55;1.25;;;0.88;;
44116;SDS011;29781;49.480;8.512;2023-04-01T19:05:33;0.70;;;0.70;;
44116;SDS011;29781;49.480;8.512;2023-04-01T19:14:30;1.00;;;0.75;;
44116;SDS011;29781;49.480;8.512;2023-04-01T19:19:54;1.23;;;0.80;;
44116;SDS011;29781;49.480;8.512;2023-04-01T19:22:44;0.75;;;0.75;;
44116;SDS011;29781;49.480;8.512;2023-04-01T19:25:35;1.00;;;0.70;;
44116;SDS011;29781;49.480;8.512;2023-04-01T19:31:20;1.10;;;1.00;;
44116;SDS011;29781;49.480;8.512;2023-04-01T19:34:02;1.23;;;1.02;;
44116;SDS011;29781;49.480;8.512;2023-04-01T19:36:45;0.98;;;0.70;;
44116;SDS011;29781;49.480;8.512;2023-04-01T19:50:34;0.90;;;0.90;;
44116;SDS011;29781;49.480;8.512;2023-04-01T19:53:17;1.17;;;1.08;;
44116;SDS011;29781;49.480;8.512;2023-04-01T20:01:24;1.33;;;1.00;;
44116;SDS011;29781;49.480;8.512;2023-04-01T20:04:17;1.10;;;1.00;;
44116;SDS011;29781;49.480;8.512;2023-04-01T20:06:48;2.80;;;1.00;;
44116;SDS011;29781;49.480;8.512;2023-04-01T20:12:13;0.90;;;0.90;;
44116;SDS011;29781;49.480;8.512;2023-04-01T20:14:50;1.25;;;1.10;;
44116;SDS011;29781;49.480;8.512;2023-04-01T20:18:01;1.40;;;1.00;;
44116;SDS011;29781;49.480;8.512;2023-04-01T20:22:49;1.50;;;1.13;;
44116;SDS011;29781;49.480;8.512;2023-04-01T20:25:46;1.48;;;1.20;;
44116;SDS011;29781;49.480;8.512;2023-04-01T20:30:59;1.58;;;1.48;;
44116;SDS011;29781;49.480;8.512;2023-04-01T20:33:41;2.25;;;1.48;;
44116;SDS011;29781;49.480;8.512;2023-04-01T20:36:26;1.48;;;1.38;;
44116;SDS011;29781;49.480;8.512;2023-04-01T20:50:23;1.52;;;1.15;;
44116;SDS011;29781;49.480;8.512;2023-04-01T21:09:53;1.75;;;0.98;;
44116;SDS011;29781;49.480;8.512;2023-04-01T21:12:50;1.85;;;1.10;;
44116;SDS011;29781;49.480;8.512;2023-04-01T21:18:14;1.70;;;1.60;;
44116;SDS011;29781;49.480;8.512;2023-04-01T21:21:09;1.55;;;1.42;;
44116;SDS011;29781;49.480;8.512;2023-04-01T21:26:47;1.58;;;1.48;;
44116;SDS011;29781;49.480;8.512;2023-04-01T21:29:51;2.42;;;1.63;;
44116;SDS011;29781;49.480;8.512;2023-04-01T21:32:55;1.75;;;1.50;;
44116;SDS011;29781;49.480;8.512;2023-04-01T21:41:57;1.52;;;1.42;;
44116;SDS011;29781;49.480;8.512;2023-04-01T21:55:31;1.90;;;1.70;;
44116;SDS011;29781;49.480;8.512;2023-04-01T21:58:27;1.90;;;1.70;;
44116;SDS011;29781;49.480;8.512;2023-04-01T22:03:46;4.75;;;1.50;;
44116;SDS011;29781;49.480;8.512;2023-04-01T22:12:12;1.17;;;1.08;;
44116;SDS011;29781;49.480;8.512;2023-04-01T22:20:14;1.70;;;1.25;;
44116;SDS011;29781;49.480;8.512;2023-04-01T22:25:45;0.90;;;0.85;;
44116;SDS011;29781;49.480;8.512;2023-04-01T22:30:52;2.45;;;1.15;;
44116;SDS011;29781;49.480;8.512;2023-04-01T22:33:32;2.25;;;0.90;;
44116;SDS011;29781;49.480;8.512;2023-04-01T22:38:56;0.75;;;0.75;;
44116;SDS011;29781;49.480;8.512;2023-04-01T22:41:57;1.77;;;0.90;;
44116;SDS011;29781;49.480;8.512;2023-04-01T22:50:23;1.45;;;1.08;;
44116;SDS011;29781;49.480;8.512;2023-04-01T22:53:03;1.65;;;1.05;;
44116;SDS011;29781;49.480;8.512;2023-04-01T22:55:52;1.50;;;1.10;;
44116;SDS011;29781;49.480;8.512;2023-04-01T22:58:25;1.40;;;1.10;;
44116;SDS011;29781;49.480;8.512;2023-04-01T23:01:08;1.40;;;1.10;;
44116;SDS011;29781;49.480;8.512;2023-04-01T23:03:40;1.83;;;1.10;;
44116;SDS011;29781;49.480;8.512;2023-04-01T23:06:12;2.92;;;1.42;;
44116;SDS011;29781;49.480;8.512;2023-04-01T23:11:49;1.85;;;1.15;;
44116;SDS011;29781;49.480;8.512;2023-04-01T23:16:52;0.95;;;0.93;;
44116;SDS011;29781;49.480;8.512;2023-04-01T23:19:44;2.33;;;1.30;;
44116;SDS011;29781;49.480;8.512;2023-04-01T23:30:59;2.80;;;2.00;;
44116;SDS011;29781;49.480;8.512;2023-04-01T23:33:29;2.80;;;1.88;;
44116;SDS011;29781;49.480;8.512;2023-04-01T23:38:35;4.28;;;1.60;;
44116;SDS011;29781;49.480;8.512;2023-04-01T23:41:03;2.78;;;1.67;;
44116;SDS011;29781;49.480;8.512;2023-04-01T23:43:34;3.40;;;1.77;;
44116;SDS011;29781;49.480;8.512;2023-04-01T23:46:03;3.60;;;1.50;;
44116;SDS011;29781;49.480;8.512;2023-04-01T23:48:33;2.15;;;1.70;;
44116;SDS011;29781;49.480;8.512;2023-04-01T23:51:19;1.90;;;1.63;;
44116;SDS011;29781;49.480;8.512;2023-04-01T23:54:01;3.08;;;1.20;;
44116;SDS011;29781;49.480;8.512;2023-04-01T23:56:33;2.17;;;1.58;;
44116;SDS011;29781;49.480;8.512;2023-04-01T23:59:02;2.15;;;1.30;;
